Abbotsford, WI (54405)

12:10 AM CST on December 27, 2014 (GMT -0600)
Taylor County | Change Station
CLOSE
Current Station
Airport
Location: Medford,
Elevation: 1470 ft
Nearby Weather Stations
Active Advisory: Winter Weather Advisory Active Notice: Public Information Statement

Elev 1470 ft 45.10 °N, 90.30 °W | Updated 15 minutes ago

Snow
Snow
30 °F
Feels Like 25 °F
N
5
Wind Variable Wind from NNE

Today
High -- | Low -- °F
--% Chance of Precip.
Yesterday
High -- | Low -- °F
Precip. -- in
7:38 AM 4:26 PM
Waxing Crescent, 33% visible
Pressure 29.97 in
Visibility 0.8 miles
Clouds Mostly Cloudy 400 ft
Overcast 800 ft
Windchill 25 °F
Dew Point 29 °F
Humidity 96%
Rainfall 0.06 in
Snow Depth Not available.
UV 0 out of 12
Pollen .10 out of 12
Air Quality Not available.
Flu Activity Not available.
METAR KMDZ 270555Z AUTO 03004KT 3/4SM SN BKN004 OVC008 M01/M01 A2997 RMK AO2 P0004 60004 T10101015 11003 21010 400041052

More Conditions Fewer Conditions

Pressure 29.97 in
Visibility 0.8 miles
Clouds Mostly Cloudy 400 ft
Overcast 800 ft
Windchill 25 °F
Dew Point 29 °F
Humidity 96%
Rainfall 0.06 in
Snow Depth Not available.
UV 0 out of 12
Pollen .10 out of 12
Air Quality Not available.
Flu Activity Not available.
METAR KMDZ 270555Z AUTO 03004KT 3/4SM SN BKN004 OVC008 M01/M01 A2997 RMK AO2 P0004 60004 T10101015 11003 21010 400041052

More Conditions Fewer Conditions

10-Day Weather Forecast

Almanac

Astronomy

Dec. 27, 2014 Rise Set
Actual Time
Civil Twilight
Nautical Twilight
Astronomical Twilight
Moon
Length of Visible Light
Length of Day
Tomorrow will be .
, % of the Moon is Illuminated

Today's Extremes

State Highs State Lows

Community

WunderPhotos

Upload Photos

1,780,853 photos uploaded!

WunderBlogs® & News

Nearby

Air Quality

  Air Quality AQ Index Pollutant
Not available.

Snow Depth

Station Depth Elevation

Earthquake Activity

City Distance Mag. Time & Date
Minimum magnitude displayed is 2.5.

Coastal Water Temperatures

Place Temperature

Nearby Weather Stations